createdAt,value
2023-09-22T00:03:14.671Z,18.90
2023-09-22T00:08:42.888Z,18.80
2023-09-22T00:14:12.488Z,18.70
2023-09-22T00:19:40.685Z,18.60
2023-09-22T00:25:10.673Z,18.50
2023-09-22T00:30:39.464Z,18.30
2023-09-22T00:36:07.956Z,18.00
2023-09-22T00:41:36.181Z,17.90
2023-09-22T00:47:07.733Z,17.80
2023-09-22T00:52:36.109Z,17.60
2023-09-22T00:58:06.100Z,17.50
2023-09-22T01:03:34.838Z,17.40
2023-09-22T01:09:10.234Z,17.30
2023-09-22T01:14:38.413Z,17.30
2023-09-22T01:20:10.133Z,17.20
2023-09-22T01:25:38.621Z,17.20
2023-09-22T01:31:07.804Z,17.10
2023-09-22T01:36:36.122Z,17.00
2023-09-22T01:42:04.833Z,16.90
2023-09-22T01:47:35.206Z,16.90
2023-09-22T01:53:03.696Z,16.80
2023-09-22T01:58:32.067Z,16.80
2023-09-22T02:04:00.691Z,16.70
2023-09-22T02:09:30.221Z,16.70
2023-09-22T02:14:58.530Z,16.70
2023-09-22T02:20:26.929Z,16.70
2023-09-22T02:25:55.368Z,16.60
2023-09-22T02:31:23.858Z,16.60
2023-09-22T02:36:52.307Z,16.60
2023-09-22T02:42:20.601Z,16.50
2023-09-22T02:47:49.464Z,16.50
2023-09-22T02:53:17.892Z,16.40
2023-09-22T02:58:46.845Z,16.30
2023-09-22T03:04:15.453Z,16.20
2023-09-22T03:09:43.880Z,16.20
2023-09-22T03:15:13.996Z,16.10
2023-09-22T03:20:42.703Z,16.10
2023-09-22T03:26:11.005Z,16.00
2023-09-22T03:31:40.302Z,15.90
2023-09-22T03:37:10.840Z,15.90
2023-09-22T03:42:39.242Z,15.80
2023-09-22T03:48:09.444Z,15.70
2023-09-22T03:53:38.460Z,15.70
2023-09-22T03:59:13.578Z,15.50
2023-09-22T04:04:42.255Z,15.40
2023-09-22T04:10:12.116Z,15.30
2023-09-22T04:15:40.368Z,15.10
2023-09-22T04:21:10.416Z,15.00
2023-09-22T04:26:45.065Z,14.90
2023-09-22T04:32:14.693Z,14.80
2023-09-22T04:37:42.967Z,14.70
2023-09-22T04:43:13.223Z,14.60
2023-09-22T04:48:41.613Z,14.50
2023-09-22T04:54:17.245Z,14.40
2023-09-22T04:59:48.822Z,14.30
2023-09-22T05:05:20.931Z,14.20
2023-09-22T05:10:49.656Z,14.10
2023-09-22T05:16:20.176Z,14.10
2023-09-22T05:21:48.510Z,14.00
2023-09-22T05:27:17.575Z,14.00
2023-09-22T05:32:47.051Z,13.90
2023-09-22T05:38:15.411Z,13.90
2023-09-22T05:43:44.295Z,13.90
2023-09-22T05:49:16.539Z,13.90
2023-09-22T05:54:48.394Z,13.90
2023-09-22T06:00:19.202Z,13.90
2023-09-22T06:05:49.544Z,13.90
2023-09-22T06:11:19.267Z,13.90
2023-09-22T06:16:47.671Z,13.90
2023-09-22T06:22:17.046Z,13.90
2023-09-22T06:27:45.564Z,13.80
2023-09-22T06:33:19.977Z,13.80
2023-09-22T06:38:48.289Z,13.80
2023-09-22T06:44:17.468Z,13.80
2023-09-22T06:49:45.765Z,13.70
2023-09-22T06:55:16.262Z,13.60
2023-09-22T07:00:44.814Z,13.60
2023-09-22T07:06:16.781Z,13.60
2023-09-22T07:11:45.257Z,13.60
2023-09-22T07:17:13.506Z,13.60
2023-09-22T07:22:43.431Z,13.60
2023-09-22T07:28:12.781Z,13.60
2023-09-22T07:33:42.460Z,13.60
2023-09-22T07:39:11.245Z,13.60
2023-09-22T07:44:40.931Z,13.70
2023-09-22T07:50:09.388Z,13.80
2023-09-22T07:55:39.528Z,13.80
2023-09-22T08:01:08.794Z,13.80
2023-09-22T08:06:38.531Z,13.80
2023-09-22T08:12:08.282Z,13.80
2023-09-22T08:17:36.842Z,13.90
2023-09-22T08:23:06.118Z,14.00
2023-09-22T08:28:34.608Z,14.10
2023-09-22T08:34:03.657Z,14.20
2023-09-22T08:39:33.049Z,14.10
2023-09-22T08:45:01.507Z,14.10
2023-09-22T08:50:30.062Z,14.10
2023-09-22T08:55:58.415Z,14.00
2023-09-22T09:01:26.675Z,14.00
2023-09-22T09:06:55.365Z,13.90
2023-09-22T09:12:23.666Z,13.90
2023-09-22T09:18:06.808Z,13.90
2023-09-22T09:23:35.266Z,13.90
2023-09-22T09:29:04.217Z,14.00
2023-09-22T09:34:42.525Z,13.90
2023-09-22T09:40:12.097Z,13.90
2023-09-22T09:45:51.875Z,13.90
2023-09-22T09:51:25.408Z,13.90
2023-09-22T09:56:54.116Z,13.90
2023-09-22T10:02:23.186Z,13.90
2023-09-22T10:07:57.581Z,13.80
2023-09-22T10:13:26.263Z,13.70
2023-09-22T10:19:01.206Z,13.60
2023-09-22T10:24:34.014Z,13.60
2023-09-22T10:30:04.051Z,13.60
2023-09-22T10:35:43.165Z,13.50
2023-09-22T10:41:11.616Z,13.50
2023-09-22T10:46:40.381Z,13.50
2023-09-22T10:52:16.082Z,13.40
2023-09-22T10:57:45.070Z,13.30
2023-09-22T11:03:15.494Z,13.30
2023-09-22T11:08:55.148Z,13.20
2023-09-22T11:14:23.592Z,13.20
2023-09-22T11:19:56.106Z,13.20
2023-09-22T11:25:26.115Z,13.20
2023-09-22T11:30:54.916Z,13.20
2023-09-22T11:36:23.408Z,13.20
2023-09-22T11:41:51.848Z,13.20
2023-09-22T11:47:25.874Z,13.20
2023-09-22T11:53:08.954Z,13.20
2023-09-22T11:58:44.673Z,13.20
2023-09-22T12:04:14.498Z,13.20
2023-09-22T12:09:42.938Z,13.20
2023-09-22T12:15:11.444Z,13.10
2023-09-22T12:20:39.770Z,13.10
2023-09-22T12:26:08.204Z,13.10
2023-09-22T12:31:38.195Z,13.10
2023-09-22T12:37:07.274Z,13.10
2023-09-22T12:42:39.370Z,13.10
2023-09-22T12:48:10.527Z,13.10
2023-09-22T12:53:47.124Z,13.10
2023-09-22T12:59:16.415Z,13.10
2023-09-22T13:04:47.096Z,13.10
2023-09-22T13:10:15.933Z,13.10
2023-09-22T13:15:49.667Z,13.10
2023-09-22T13:21:18.107Z,13.10
2023-09-22T13:26:46.508Z,13.00
2023-09-22T13:32:16.805Z,13.00
2023-09-22T13:37:45.035Z,12.90
2023-09-22T13:43:13.841Z,12.90
2023-09-22T13:48:42.694Z,12.90
2023-09-22T13:54:12.219Z,12.90
2023-09-22T13:59:40.471Z,12.90
2023-09-22T14:05:13.420Z,12.80
2023-09-22T14:10:43.350Z,13.00
2023-09-22T14:16:15.204Z,13.00
2023-09-22T14:21:43.664Z,13.00
2023-09-22T14:27:21.033Z,12.90
2023-09-22T14:32:52.169Z,12.90
2023-09-22T14:38:20.354Z,12.80
2023-09-22T14:43:51.541Z,12.80
2023-09-22T14:49:20.269Z,12.70
2023-09-22T14:54:49.136Z,12.60
2023-09-22T15:00:17.930Z,12.60
2023-09-22T15:05:47.485Z,12.50
2023-09-22T15:11:19.972Z,12.40
2023-09-22T15:22:40.606Z,12.20
2023-09-22T15:28:08.961Z,12.10
2023-09-22T15:33:37.242Z,12.10
2023-09-22T15:39:10.423Z,12.10
2023-09-22T15:44:38.730Z,12.10
2023-09-22T15:50:11.236Z,12.10
2023-09-22T15:55:39.615Z,12.20
2023-09-22T16:01:08.117Z,12.20
2023-09-22T16:06:36.594Z,12.20
2023-09-22T16:12:05.078Z,12.20
2023-09-22T16:17:34.440Z,12.20
2023-09-22T16:23:03.299Z,12.20
2023-09-22T16:28:33.345Z,12.20
2023-09-22T16:34:01.959Z,12.20
2023-09-22T16:39:30.467Z,12.20
2023-09-22T16:45:13.694Z,12.10
2023-09-22T16:50:55.260Z,12.10
2023-09-22T16:56:25.677Z,12.10
2023-09-22T17:01:54.005Z,12.10
2023-09-22T17:07:22.525Z,12.00
2023-09-22T17:12:50.959Z,12.00
2023-09-22T17:18:20.008Z,11.90
2023-09-22T17:23:51.442Z,11.80
2023-09-22T17:29:20.633Z,11.70
2023-09-22T17:34:53.923Z,11.70
2023-09-22T17:40:26.480Z,11.70
2023-09-22T17:46:02.646Z,11.60
2023-09-22T17:51:31.248Z,11.70
2023-09-22T17:57:03.672Z,11.60
2023-09-22T18:02:32.011Z,11.60
2023-09-22T18:08:00.342Z,11.60
2023-09-22T18:13:29.103Z,11.60
2023-09-22T18:18:57.573Z,11.60
2023-09-22T18:24:26.236Z,11.60
2023-09-22T18:29:54.785Z,11.50
2023-09-22T18:35:32.028Z,11.60
2023-09-22T18:41:17.428Z,11.60
2023-09-22T18:46:57.417Z,11.60
2023-09-22T18:52:38.844Z,11.60
2023-09-22T18:58:07.594Z,11.60
2023-09-22T19:03:38.519Z,11.60
2023-09-22T19:09:07.618Z,11.60
2023-09-22T19:16:05.644Z,11.60
2023-09-22T19:22:34.156Z,11.70
2023-09-22T19:28:04.660Z,11.70
2023-09-22T19:33:33.816Z,11.70
2023-09-22T19:39:02.284Z,11.70
2023-09-22T19:44:30.615Z,11.70
2023-09-22T19:49:58.954Z,11.70
2023-09-22T19:55:27.285Z,11.70
2023-09-22T20:00:56.228Z,11.70
2023-09-22T20:06:25.568Z,11.70
2023-09-22T20:11:53.815Z,11.70
2023-09-22T20:17:22.239Z,11.70
2023-09-22T20:22:53.423Z,11.90
2023-09-22T20:28:21.618Z,11.90
2023-09-22T20:33:50.279Z,11.90
2023-09-22T20:39:18.590Z,11.80
2023-09-22T20:44:47.204Z,11.90
2023-09-22T20:50:15.840Z,11.90
2023-09-22T20:55:44.208Z,11.90
2023-09-22T21:01:17.564Z,11.90
2023-09-22T21:06:47.028Z,11.80
2023-09-22T21:12:15.206Z,11.80
2023-09-22T21:17:43.316Z,11.80
2023-09-22T21:23:11.519Z,11.80
2023-09-22T21:28:42.006Z,11.80
2023-09-22T21:34:10.896Z,11.80
2023-09-22T21:39:39.775Z,11.70
2023-09-22T21:45:08.781Z,11.70
2023-09-22T21:50:40.917Z,11.70
2023-09-22T21:56:09.205Z,11.70
2023-09-22T22:01:37.639Z,11.70
2023-09-22T22:07:11.974Z,11.60
2023-09-22T22:12:41.977Z,11.60
2023-09-22T22:18:10.512Z,11.50
2023-09-22T22:23:40.136Z,11.50
2023-09-22T22:29:10.153Z,11.40
2023-09-22T22:34:38.508Z,11.30
2023-09-22T22:40:14.496Z,11.30
2023-09-22T22:45:45.642Z,11.20
2023-09-22T22:51:14.284Z,11.10
2023-09-22T22:56:45.604Z,11.10
2023-09-22T23:02:15.039Z,11.10
2023-09-22T23:07:45.893Z,11.10
2023-09-22T23:13:15.562Z,11.00
2023-09-22T23:18:45.885Z,11.00
2023-09-22T23:24:15.641Z,11.00
2023-09-22T23:29:43.765Z,11.00
2023-09-22T23:35:11.997Z,11.00
2023-09-22T23:40:41.658Z,11.00
2023-09-22T23:46:10.791Z,11.00
2023-09-22T23:51:41.070Z,11.00
2023-09-22T23:57:09.805Z,11.00
